Time;durP1;ratioP1;P1;durP2;ratioP2;P2;SDS_P1;SDS_P2;PMS_P1;PMS_P2;Temp;Humidity;BMP_temperature;BMP_pressure;BME280_temperature;BME280_humidity;BME280_pressure;Samples;Min_cycle;Max_cycle;Signal;HPM_P1;HPM_P2
2022/10/11 00:00:17;;;;;;;23.87;7.93;;;8.60;99.90;;;;;;5042500;28;20196;-65
2022/10/11 00:02:44;;;;;;;18.47;7.07;;;8.60;99.90;;;;;;5022967;28;20239;-64
2022/10/11 00:05:11;;;;;;;21.20;7.70;;;8.60;99.90;;;;;;5022078;28;20195;-65
2022/10/11 00:07:38;;;;;;;17.40;7.50;;;8.60;99.90;;;;;;5042498;28;20254;-65
2022/10/11 00:10:06;;;;;;;21.23;8.17;;;8.50;99.90;;;;;;5023933;28;20286;-65
2022/10/11 00:12:35;;;;;;;19.10;9.13;;;8.50;99.90;;;;;;5037586;28;20208;-68
2022/10/11 00:15:03;;;;;;;21.30;8.97;;;8.50;1.00;;;;;;5020357;28;20196;-64
2022/10/11 00:17:31;;;;;;;23.53;9.20;;;8.50;1.00;;;;;;5037532;28;20219;-62
2022/10/11 00:19:58;;;;;;;25.47;9.10;;;8.50;1.00;;;;;;5038846;28;20187;-63
2022/10/11 00:22:25;;;;;;;18.13;7.43;;;8.50;1.00;;;;;;5006175;28;20195;-62
2022/10/11 00:24:52;;;;;;;21.43;8.63;;;8.40;1.00;;;;;;5036833;28;20199;-62
2022/10/11 00:27:19;;;;;;;19.17;8.80;;;8.40;1.00;;;;;;5018036;28;20228;-64
2022/10/11 00:29:46;;;;;;;16.97;7.93;;;8.40;1.00;;;;;;5016760;28;20299;-62
2022/10/11 00:32:13;;;;;;;28.73;10.93;;;8.40;1.00;;;;;;5026347;28;20715;-62
2022/10/11 00:34:40;;;;;;;29.10;13.33;;;8.40;1.00;;;;;;5021246;28;20675;-63
2022/10/11 00:37:06;;;;;;;25.30;10.97;;;8.40;1.00;;;;;;5021125;28;20212;-63
2022/10/11 00:39:33;;;;;;;22.17;10.37;;;8.30;1.00;;;;;;5019339;28;20205;-64
2022/10/11 00:42:01;;;;;;;25.47;10.60;;;8.40;99.90;;;;;;5021367;28;20197;-62
2022/10/11 00:44:31;;;;;;;23.07;10.83;;;8.40;1.00;;;;;;5020171;28;20301;-63
2022/10/11 00:47:05;;;;;;;31.10;13.00;;;8.40;1.00;;;;;;5018140;28;20283;-63
2022/10/11 00:49:40;;;;;;;24.43;11.73;;;8.40;1.00;;;;;;5025382;28;20204;-64
2022/10/11 00:52:16;;;;;;;21.77;10.70;;;8.40;99.90;;;;;;5026528;28;20199;-63
2022/10/11 00:54:45;;;;;;;22.63;10.63;;;8.30;99.90;;;;;;5017968;28;20283;-65
2022/10/11 00:57:17;;;;;;;24.40;10.37;;;8.30;1.00;;;;;;5034187;28;20245;-64
2022/10/11 00:59:49;;;;;;;19.30;9.50;;;8.20;99.90;;;;;;5001299;28;20207;-65
2022/10/11 01:02:18;;;;;;;21.97;10.27;;;8.20;99.90;;;;;;5021276;28;20188;-65
2022/10/11 01:04:45;;;;;;;28.37;13.00;;;8.10;99.90;;;;;;5035716;28;20185;-65
2022/10/11 01:07:12;;;;;;;17.67;7.90;;;8.10;99.90;;;;;;5019101;28;20193;-65
2022/10/11 01:09:39;;;;;;;19.20;7.73;;;8.00;99.90;;;;;;5025331;28;20566;-65
2022/10/11 01:12:17;;;;;;;20.27;8.37;;;8.00;99.90;;;;;;5021100;28;20306;-65
2022/10/11 01:14:57;;;;;;;20.07;8.03;;;8.00;99.90;;;;;;5020338;28;20659;-63
2022/10/11 01:17:24;;;;;;;21.40;8.33;;;7.90;99.90;;;;;;5001198;28;20271;-64
2022/10/11 01:20:27;;;;;;;18.20;7.80;;;7.80;1.00;;;;;;5018295;28;20208;-63
2022/10/11 01:23:11;;;;;;;26.50;10.23;;;7.80;99.90;;;;;;5016890;28;20197;-64
2022/10/11 01:26:03;;;;;;;20.93;10.60;;;7.80;1.00;;;;;;5024140;28;20273;-64
2022/10/11 01:29:02;;;;;;;18.73;8.03;;;7.80;1.00;;;;;;5021302;28;20227;-64
2022/10/11 01:31:52;;;;;;;15.43;7.97;;;7.80;1.00;;;;;;4976851;28;20216;-62
2022/10/11 01:34:24;;;;;;;17.10;8.20;;;7.70;1.00;;;;;;5016617;28;20230;-64
2022/10/11 01:37:04;;;;;;;22.10;9.13;;;7.70;1.00;;;;;;5017030;28;20252;-62
2022/10/11 01:39:47;;;;;;;19.87;8.57;;;7.70;1.00;;;;;;5034993;28;20200;-64
2022/10/11 01:42:17;;;;;;;52.03;31.77;;;7.70;1.00;;;;;;5032772;28;20267;-64
2022/10/11 01:44:47;;;;;;;68.30;40.47;;;7.80;1.00;;;;;;5016254;28;20814;-63
2022/10/11 01:47:19;;;;;;;38.53;24.33;;;7.80;1.00;;;;;;5032929;28;20204;-64
2022/10/11 01:49:53;;;;;;;49.40;37.57;;;7.80;1.00;;;;;;5016841;28;20209;-64
2022/10/11 01:52:20;;;;;;;38.30;22.37;;;7.80;1.00;;;;;;5013800;28;20219;-64
2022/10/11 01:55:00;;;;;;;40.47;21.63;;;7.80;1.00;;;;;;5030659;28;20212;-65
2022/10/11 01:57:57;;;;;;;28.60;14.90;;;7.80;1.00;;;;;;5017380;28;20882;-64
2022/10/11 02:00:31;;;;;;;25.00;12.13;;;8.00;90.10;;;;;;5015591;28;20793;-62
2022/10/11 02:02:58;;;;;;;22.70;11.73;;;8.00;99.90;;;;;;5018142;28;20200;-61
2022/10/11 02:05:40;;;;;;;20.47;10.33;;;8.00;99.90;;;;;;5003922;28;20670;-62
2022/10/11 02:08:12;;;;;;;23.80;11.30;;;7.90;99.90;;;;;;5012316;28;20245;-62
2022/10/11 02:10:57;;;;;;;29.67;11.63;;;7.90;99.90;;;;;;5035257;28;20200;-64
2022/10/11 02:13:32;;;;;;;17.93;12.47;;;7.90;99.90;;;;;;5018375;28;20217;-62
2022/10/11 02:16:03;;;;;;;30.60;14.17;;;7.80;1.00;;;;;;5028651;28;20188;-63
2022/10/11 02:18:38;;;;;;;29.43;13.50;;;7.70;1.00;;;;;;5020153;28;20300;-63
2022/10/11 02:21:08;;;;;;;20.97;13.27;;;7.60;1.00;;;;;;5018074;28;20257;-64
2022/10/11 02:23:40;;;;;;;20.90;12.17;;;7.60;1.00;;;;;;5017142;28;20213;-64
2022/10/11 02:26:10;;;;;;;26.77;12.40;;;7.50;1.00;;;;;;5035383;28;20259;-63
2022/10/11 02:28:39;;;;;;;20.73;10.63;;;7.40;1.00;;;;;;5036070;28;20233;-64
2022/10/11 02:31:09;;;;;;;20.10;10.17;;;7.40;99.90;;;;;;5039793;28;20199;-63
2022/10/11 02:33:54;;;;;;;21.03;9.43;;;7.40;99.90;;;;;;5025045;28;20206;-63
2022/10/11 02:36:49;;;;;;;21.27;10.57;;;7.40;99.90;;;;;;5021654;28;20195;-63
2022/10/11 02:39:23;;;;;;;18.17;10.53;;;7.30;99.90;;;;;;5023859;28;20202;-62
2022/10/11 02:41:55;;;;;;;18.03;11.77;;;7.30;99.90;;;;;;5041130;28;20215;-62
2022/10/11 02:44:32;;;;;;;21.83;10.87;;;7.30;4.40;;;;;;5040843;28;20201;-62
2022/10/11 02:47:00;;;;;;;16.80;10.17;;;7.30;1.00;;;;;;5041658;28;20194;-63
2022/10/11 02:49:29;;;;;;;16.60;8.97;;;7.20;1.00;;;;;;5026190;28;21163;-63
2022/10/11 02:51:57;;;;;;;10.73;7.30;;;7.20;1.00;;;;;;5030243;28;20204;-66
2022/10/11 02:54:25;;;;;;;14.20;6.97;;;7.10;1.00;;;;;;5040452;28;20290;-65
2022/10/11 02:56:52;;;;;;;12.93;7.47;;;7.00;1.00;;;;;;5039983;28;20698;-65
2022/10/11 02:59:19;;;;;;;14.30;7.20;;;6.90;99.90;;;;;;5054238;28;20199;-65
2022/10/11 03:01:47;;;;;;;14.13;8.37;;;6.90;99.90;;;;;;5051880;28;20200;-66
2022/10/11 03:04:14;;;;;;;19.30;8.93;;;6.70;30.60;;;;;;5005927;28;20228;-66
2022/10/11 03:06:41;;;;;;;21.90;8.60;;;6.70;6.40;;;;;;5038212;28;20269;-66
2022/10/11 03:09:08;;;;;;;13.97;7.60;;;6.70;1.00;;;;;;5024607;28;20744;-66
2022/10/11 03:11:35;;;;;;;10.80;6.33;;;6.70;1.00;;;;;;5023434;28;20265;-66
2022/10/11 03:14:02;;;;;;;12.83;7.33;;;6.60;1.00;;;;;;5014059;28;20227;-66
2022/10/11 03:16:29;;;;;;;12.50;6.33;;;6.60;1.00;;;;;;5019425;28;20231;-66
2022/10/11 03:18:56;;;;;;;16.13;7.87;;;6.60;1.00;;;;;;5056803;28;20675;-65
2022/10/11 03:21:24;;;;;;;17.70;8.50;;;6.50;1.00;;;;;;5033843;28;20211;-65
2022/10/11 03:23:51;;;;;;;23.17;11.17;;;6.50;1.00;;;;;;5037954;28;20212;-66
2022/10/11 03:26:18;;;;;;;14.13;7.27;;;6.50;1.00;;;;;;5039061;28;20865;-66
2022/10/11 03:28:45;;;;;;;20.57;8.33;;;6.40;1.00;;;;;;5022973;28;20256;-66
2022/10/11 03:31:12;;;;;;;34.17;10.00;;;6.40;1.00;;;;;;5020335;28;20506;-65
2022/10/11 03:33:39;;;;;;;27.17;9.73;;;6.40;1.00;;;;;;5036345;28;20429;-65
2022/10/11 03:36:07;;;;;;;22.00;9.93;;;6.40;1.00;;;;;;5028170;28;20682;-65
2022/10/11 03:38:34;;;;;;;20.50;9.57;;;6.40;1.00;;;;;;5022206;28;20247;-65
2022/10/11 03:41:02;;;;;;;20.83;10.20;;;6.40;1.00;;;;;;5011964;28;20227;-65
2022/10/11 03:43:29;;;;;;;24.90;9.57;;;6.40;1.00;;;;;;5035387;28;20292;-64
2022/10/11 03:45:56;;;;;;;19.50;9.57;;;6.30;1.00;;;;;;5021905;28;20621;-64
2022/10/11 03:48:23;;;;;;;25.13;10.53;;;6.40;1.00;;;;;;5051758;28;20202;-65
2022/10/11 03:50:50;;;;;;;22.30;9.77;;;6.30;1.00;;;;;;5052923;28;20231;-65
2022/10/11 03:53:17;;;;;;;21.20;9.67;;;6.30;1.00;;;;;;5039227;28;20907;-65
2022/10/11 03:55:44;;;;;;;23.60;9.03;;;6.30;1.00;;;;;;5053108;28;20762;-65
2022/10/11 03:58:11;;;;;;;18.47;8.50;;;6.30;1.00;;;;;;5024289;28;20613;-65
2022/10/11 04:00:39;;;;;;;23.87;8.90;;;6.20;1.00;;;;;;5023202;28;20322;-65
2022/10/11 04:03:06;;;;;;;18.57;8.83;;;6.20;1.00;;;;;;5057632;28;20242;-65
2022/10/11 04:05:33;;;;;;;33.77;9.57;;;6.20;1.00;;;;;;5042019;28;20594;-65
2022/10/11 04:08:00;;;;;;;24.57;7.97;;;6.20;1.00;;;;;;5040827;28;20221;-65
2022/10/11 04:10:27;;;;;;;21.30;8.43;;;6.20;1.00;;;;;;5021424;28;20207;-64
2022/10/11 04:12:55;;;;;;;13.37;7.33;;;6.10;1.00;;;;;;5036875;28;20690;-65
2022/10/11 04:15:22;;;;;;;19.90;8.50;;;6.20;1.00;;;;;;5043602;28;20210;-64
2022/10/11 04:17:49;;;;;;;15.93;7.73;;;6.20;1.00;;;;;;5037402;28;20225;-65
2022/10/11 04:20:16;;;;;;;19.57;8.30;;;6.10;99.90;;;;;;5021411;28;20192;-65
2022/10/11 04:22:43;;;;;;;23.50;8.20;;;6.10;99.90;;;;;;5017761;28;20663;-66
2022/10/11 04:25:13;;;;;;;25.37;8.77;;;6.10;99.90;;;;;;5021866;28;20212;-68
2022/10/11 04:27:41;;;;;;;20.00;8.57;;;6.10;99.90;;;;;;5038792;28;20310;-68
2022/10/11 04:30:08;;;;;;;18.03;8.20;;;6.00;25.20;;;;;;5052497;28;21163;-68
2022/10/11 04:32:35;;;;;;;25.53;8.67;;;6.00;1.00;;;;;;5020674;28;20215;-67
2022/10/11 04:35:03;;;;;;;16.80;7.93;;;5.90;1.00;;;;;;5027066;28;20283;-65
2022/10/11 04:37:30;;;;;;;20.60;7.63;;;5.90;1.00;;;;;;5021924;28;20242;-66
2022/10/11 04:39:58;;;;;;;21.57;7.90;;;5.90;1.00;;;;;;5019279;28;20210;-66
2022/10/11 04:42:25;;;;;;;18.37;6.93;;;5.90;1.00;;;;;;5039143;28;20199;-66
2022/10/11 04:44:52;;;;;;;17.47;8.80;;;5.90;1.00;;;;;;5028341;28;20196;-65
2022/10/11 04:47:19;;;;;;;18.27;7.67;;;5.90;1.00;;;;;;5018456;28;20225;-65
2022/10/11 04:49:46;;;;;;;21.63;8.93;;;5.90;1.00;;;;;;5018597;28;20198;-65
2022/10/11 04:52:13;;;;;;;26.90;8.80;;;5.90;1.00;;;;;;5037327;28;20200;-66
2022/10/11 04:54:40;;;;;;;20.87;8.57;;;5.80;1.00;;;;;;5021056;28;20646;-65
2022/10/11 04:57:06;;;;;;;21.23;9.20;;;5.80;1.00;;;;;;5019822;28;20200;-66
2022/10/11 04:59:34;;;;;;;22.20;9.57;;;5.80;1.00;;;;;;5021000;28;20204;-65
2022/10/11 05:02:01;;;;;;;23.63;9.87;;;5.80;1.00;;;;;;5020635;28;20279;-65
2022/10/11 05:04:28;;;;;;;25.07;10.43;;;5.80;1.00;;;;;;5018878;28;20195;-66
2022/10/11 05:06:55;;;;;;;19.13;10.57;;;5.80;1.00;;;;;;5038626;28;20192;-64
2022/10/11 05:09:22;;;;;;;19.87;9.10;;;5.70;1.00;;;;;;5020239;28;20572;-64
2022/10/11 05:11:49;;;;;;;22.50;9.77;;;5.80;1.00;;;;;;5021046;28;20267;-65
2022/10/11 05:14:16;;;;;;;25.60;10.10;;;5.80;1.00;;;;;;5037499;28;20755;-64
2022/10/11 05:16:43;;;;;;;27.13;10.10;;;5.70;99.90;;;;;;5037518;28;20231;-64
2022/10/11 05:19:10;;;;;;;41.87;12.63;;;5.60;99.90;;;;;;5003558;28;20262;-64
2022/10/11 05:21:37;;;;;;;86.43;12.40;;;5.60;99.90;;;;;;5018748;28;20209;-65
2022/10/11 05:24:04;;;;;;;42.93;13.10;;;5.50;1.00;;;;;;5051120;28;20187;-63
2022/10/11 05:26:31;;;;;;;87.50;13.83;;;5.50;1.00;;;;;;5019662;28;20231;-65
2022/10/11 05:28:58;;;;;;;65.00;12.83;;;5.50;1.00;;;;;;5019857;28;20240;-64
2022/10/11 05:31:26;;;;;;;62.00;14.30;;;5.50;1.00;;;;;;5019433;28;20199;-64
2022/10/11 05:33:53;;;;;;;50.33;13.23;;;5.40;1.00;;;;;;5000576;28;20224;-65
2022/10/11 05:36:20;;;;;;;76.57;11.80;;;5.30;1.00;;;;;;5035103;28;20286;-65
2022/10/11 05:38:47;;;;;;;44.90;11.83;;;5.40;99.90;;;;;;5035952;28;20204;-64
2022/10/11 05:41:19;;;;;;;45.53;12.03;;;5.40;99.90;;;;;;5050631;28;20287;-63
2022/10/11 05:43:46;;;;;;;35.17;11.63;;;5.40;99.90;;;;;;5038516;28;20191;-64
2022/10/11 05:46:14;;;;;;;27.80;9.60;;;5.30;99.90;;;;;;5056240;28;20315;-62
2022/10/11 05:48:41;;;;;;;28.07;10.60;;;5.30;99.90;;;;;;5022543;28;20731;-65
2022/10/11 05:51:10;;;;;;;38.27;10.40;;;5.30;99.90;;;;;;5021367;28;20210;-63
2022/10/11 05:53:37;;;;;;;39.83;9.73;;;5.30;99.90;;;;;;5028251;28;20210;-64
2022/10/11 05:56:15;;;;;;;43.20;15.13;;;5.30;83.90;;;;;;5041982;28;20200;-64
2022/10/11 05:58:42;;;;;;;20.40;10.80;;;5.30;76.60;;;;;;5054609;28;20253;-66
2022/10/11 06:01:16;;;;;;;22.13;10.63;;;5.20;1.00;;;;;;5038779;28;20780;-63
2022/10/11 06:03:43;;;;;;;28.60;14.63;;;5.30;1.00;;;;;;5022419;28;20197;-64
2022/10/11 06:06:10;;;;;;;25.10;12.27;;;5.40;1.00;;;;;;5023361;28;20842;-64
2022/10/11 06:08:37;;;;;;;23.70;10.10;;;5.60;1.00;;;;;;5056963;28;20193;-64
2022/10/11 06:11:20;;;;;;;18.03;9.13;;;5.70;1.00;;;;;;5043307;28;20202;-64
2022/10/11 06:13:47;;;;;;;27.23;13.33;;;6.00;99.90;;;;;;5026883;28;20216;-65
2022/10/11 06:16:15;;;;;;;16.07;8.33;;;6.30;1.00;;;;;;5031897;28;20199;-66
2022/10/11 06:18:42;;;;;;;17.43;8.00;;;6.70;99.90;;;;;;5039624;28;20311;-64
2022/10/11 06:21:09;;;;;;;14.90;7.73;;;7.10;1.00;;;;;;5023759;28;20246;-68
2022/10/11 06:23:36;;;;;;;14.30;7.47;;;7.80;99.90;;;;;;5044078;28;20210;-67
2022/10/11 06:26:07;;;;;;;13.33;6.43;;;8.60;1.00;;;;;;5040436;28;20285;-68
2022/10/11 06:28:36;;;;;;;9.37;5.70;;;9.10;99.90;;;;;;5015374;28;20231;-68
2022/10/11 06:31:05;;;;;;;9.10;6.43;;;10.10;91.00;;;;;;5027607;28;20654;-68
2022/10/11 06:33:32;;;;;;;10.20;7.07;;;10.70;1.00;;;;;;5027205;28;20200;-67
2022/10/11 06:36:02;;;;;;;13.13;6.73;;;11.20;1.00;;;;;;5054264;28;20295;-68
2022/10/11 06:38:33;;;;;;;13.40;7.07;;;12.10;1.00;;;;;;5048803;28;20217;-67
2022/10/11 06:41:18;;;;;;;32.10;20.07;;;13.00;1.00;;;;;;5046568;28;20211;-68
2022/10/11 06:43:48;;;;;;;12.33;7.73;;;13.20;1.00;;;;;;5051196;28;20199;-67
2022/10/11 06:46:18;;;;;;;9.33;5.17;;;13.30;1.00;;;;;;5020832;28;20211;-67
2022/10/11 06:48:49;;;;;;;8.80;5.13;;;12.80;1.00;;;;;;5036382;28;20221;-66
2022/10/11 06:51:20;;;;;;;10.75;5.30;;;12.00;1.00;;;;;;5022427;28;20231;-67
2022/10/11 06:53:54;;;;;;;9.27;5.50;;;11.20;1.00;;;;;;5023146;28;20689;-68
2022/10/11 06:56:21;;;;;;;7.90;5.20;;;10.80;1.00;;;;;;5040788;28;20219;-65
2022/10/11 06:58:50;;;;;;;9.73;5.13;;;10.60;1.00;;;;;;5029957;28;20315;-63
2022/10/11 07:01:24;;;;;;;9.82;4.95;;;10.60;1.00;;;;;;5062291;28;20179;-64
2022/10/11 07:03:54;;;;;;;21.45;11.30;;;10.80;1.00;;;;;;5029948;28;20208;-64
2022/10/11 07:06:24;;;;;;;16.83;9.88;;;10.70;1.00;;;;;;5029630;28;20589;-63
2022/10/11 07:08:52;;;;;;;13.40;7.78;;;10.80;1.00;;;;;;5043647;28;20227;-63
2022/10/11 07:11:26;;;;;;;18.33;11.73;;;10.80;1.00;;;;;;5065705;28;20212;-63
2022/10/11 07:13:56;;;;;;;19.40;12.60;;;10.90;1.00;;;;;;5064407;28;20216;-66
2022/10/11 07:16:24;;;;;;;26.57;20.63;;;10.10;1.00;;;;;;5027965;28;20211;-66
2022/10/11 07:18:57;;;;;;;13.40;7.67;;;9.90;46.10;;;;;;5030971;28;20709;-66
2022/10/11 07:21:34;;;;;;;8.50;6.37;;;10.30;25.10;;;;;;5037055;28;20283;-66
2022/10/11 07:24:02;;;;;;;12.53;7.80;;;10.60;1.00;;;;;;5031781;28;20543;-68
2022/10/11 07:26:30;;;;;;;9.80;6.63;;;10.90;1.00;;;;;;5040016;28;20576;-68
2022/10/11 07:29:05;;;;;;;11.97;7.17;;;10.90;1.00;;;;;;5058512;28;20314;-67
2022/10/11 07:31:37;;;;;;;12.10;6.80;;;11.20;1.00;;;;;;5024924;28;20755;-66
2022/10/11 07:34:04;;;;;;;12.37;6.30;;;11.60;1.00;;;;;;5024375;28;20235;-67
2022/10/11 07:36:31;;;;;;;12.10;6.57;;;11.80;1.00;;;;;;5055884;28;20496;-66
2022/10/11 07:38:58;;;;;;;14.50;6.80;;;11.90;1.00;;;;;;5025263;28;20224;-67
2022/10/11 07:41:25;;;;;;;13.53;6.33;;;12.00;1.00;;;;;;5043222;28;20646;-66
2022/10/11 07:43:53;;;;;;;14.97;6.73;;;11.90;1.00;;;;;;5056685;28;20194;-64
2022/10/11 07:46:20;;;;;;;13.73;6.93;;;11.80;1.00;;;;;;5040375;28;20282;-66
2022/10/11 07:48:49;;;;;;;11.67;6.83;;;11.90;1.00;;;;;;5022708;28;20232;-64
2022/10/11 07:51:19;;;;;;;10.47;6.70;;;12.00;1.00;;;;;;5014345;28;20597;-63
2022/10/11 07:53:48;;;;;;;17.03;7.27;;;12.00;1.00;;;;;;5038505;28;20215;-66
2022/10/11 07:56:19;;;;;;;16.60;8.73;;;12.00;1.00;;;;;;5009673;28;20196;-67
2022/10/11 07:58:51;;;;;;;18.30;7.87;;;12.00;25.70;;;;;;5040785;28;20211;-64
2022/10/11 08:01:19;;;;;;;16.87;8.17;;;12.30;9.90;;;;;;5038947;28;20255;-65
2022/10/11 08:03:47;;;;;;;15.53;8.17;;;12.40;1.00;;;;;;5039746;28;20192;-64
2022/10/11 08:06:17;;;;;;;17.43;8.87;;;12.20;24.60;;;;;;5038855;28;20210;-65
2022/10/11 08:08:44;;;;;;;16.37;8.17;;;12.30;51.90;;;;;;5036324;28;20218;-66
2022/10/11 08:11:20;;;;;;;24.13;8.97;;;12.50;5.00;;;;;;5025161;28;20195;-65
2022/10/11 08:13:47;;;;;;;21.00;7.93;;;12.70;1.00;;;;;;5053996;28;20216;-66
2022/10/11 08:16:15;;;;;;;17.53;8.93;;;12.80;1.00;;;;;;5052948;28;20890;-66
2022/10/11 08:18:42;;;;;;;20.87;8.47;;;12.90;1.00;;;;;;5046749;28;20230;-65
2022/10/11 08:21:11;;;;;;;18.97;8.13;;;13.10;1.00;;;;;;5039784;28;20203;-67
2022/10/11 08:23:38;;;;;;;23.37;9.20;;;13.20;1.00;;;;;;5036453;28;20195;-66
2022/10/11 08:26:06;;;;;;;24.23;9.20;;;13.30;1.00;;;;;;5041333;28;20191;-66
2022/10/11 08:28:34;;;;;;;20.97;8.17;;;13.40;1.00;;;;;;5056144;28;20231;-67
2022/10/11 08:31:01;;;;;;;21.77;9.23;;;13.60;1.00;;;;;;5020672;28;20192;-66
2022/10/11 08:33:29;;;;;;;25.20;9.50;;;13.80;1.00;;;;;;5036339;28;20192;-66
2022/10/11 08:35:57;;;;;;;24.43;9.70;;;13.80;1.00;;;;;;5021248;28;20406;-66
2022/10/11 08:38:24;;;;;;;28.87;9.97;;;13.30;1.00;;;;;;5038665;28;20192;-66
2022/10/11 08:40:56;;;;;;;21.80;9.40;;;13.40;1.00;;;;;;5037165;28;20814;-65
2022/10/11 08:43:49;;;;;;;23.65;8.75;;;13.70;1.00;;;;;;5020579;28;20200;-66
2022/10/11 08:46:22;;;;;;;20.80;8.35;;;14.40;1.00;;;;;;5039955;28;20288;-66
2022/10/11 08:48:51;;;;;;;19.80;7.35;;;19.90;1.00;;;;;;5023453;28;20203;-64
2022/10/11 08:51:30;;;;;;;18.17;7.82;;;24.60;1.00;;;;;;5050661;28;20231;-66
2022/10/11 08:54:13;;;;;;;18.30;7.18;;;28.20;1.00;;;;;;5018855;28;20772;-66
2022/10/11 08:56:42;;;;;;;21.90;7.00;;;30.00;1.00;;;;;;5036556;28;20192;-65
2022/10/11 08:59:12;;;;;;;17.38;7.00;;;30.80;1.00;;;;;;5019860;28;20216;-65
2022/10/11 09:02:02;;;;;;;18.00;7.60;;;30.50;1.00;;;;;;5026773;28;20296;-65
2022/10/11 09:04:31;;;;;;;17.40;7.28;;;27.80;1.00;;;;;;5039554;28;20696;-65
2022/10/11 09:07:23;;;;;;;14.85;7.10;;;28.50;1.00;;;;;;5040006;28;20271;-65
2022/10/11 09:09:59;;;;;;;14.55;7.47;;;30.10;1.00;;;;;;5039012;28;20195;-65
2022/10/11 09:12:48;;;;;;;14.85;6.85;;;26.40;1.00;;;;;;5010809;28;20278;-65
2022/10/11 09:15:17;;;;;;;16.13;6.93;;;29.40;1.00;;;;;;5052694;28;20231;-65
2022/10/11 09:17:51;;;;;;;13.55;6.82;;;31.30;1.00;;;;;;5027221;28;20307;-65
2022/10/11 09:20:21;;;;;;;14.93;6.72;;;30.10;1.00;;;;;;5024955;28;20932;-65
2022/10/11 09:23:07;;;;;;;11.85;5.65;;;31.90;1.00;;;;;;5017605;28;20195;-65
2022/10/11 09:25:50;;;;;;;12.93;5.97;;;33.50;1.00;;;;;;5031825;28;20192;-66
2022/10/11 09:28:20;;;;;;;14.48;5.82;;;34.90;1.00;;;;;;5038568;28;20280;-65
2022/10/11 09:30:50;;;;;;;14.30;5.68;;;33.20;1.00;;;;;;5038843;28;20261;-65
2022/10/11 09:33:32;;;;;;;12.77;5.40;;;31.50;1.00;;;;;;5036218;28;20206;-66
2022/10/11 09:36:01;;;;;;;10.50;5.53;;;32.60;1.00;;;;;;5028146;28;20279;-64
2022/10/11 09:38:39;;;;;;;13.32;4.88;;;33.10;1.00;;;;;;5039145;28;20235;-65
2022/10/11 09:41:22;;;;;;;12.50;4.75;;;33.40;1.00;;;;;;5021248;28;20248;-66
2022/10/11 09:43:50;;;;;;;10.45;4.97;;;33.60;1.00;;;;;;5021424;28;20322;-65
2022/10/11 09:46:23;;;;;;;17.60;5.57;;;35.10;1.00;;;;;;5019813;28;20195;-65
2022/10/11 09:48:51;;;;;;;15.77;4.95;;;35.10;1.00;;;;;;5035360;28;20227;-65
2022/10/11 09:51:22;;;;;;;12.00;4.85;;;34.50;1.00;;;;;;5047378;28;20257;-66
2022/10/11 09:53:57;;;;;;;9.07;4.43;;;35.50;1.00;;;;;;5038894;28;20191;-66
2022/10/11 09:56:27;;;;;;;8.60;4.28;;;34.60;1.00;;;;;;5025030;28;20294;-66
2022/10/11 09:59:25;;;;;;;7.60;4.32;;;35.20;1.00;;;;;;5019562;28;20283;-66
2022/10/11 10:02:26;;;;;;;15.32;5.10;;;33.70;1.00;;;;;;5038021;28;20219;-70
2022/10/11 10:04:54;;;;;;;12.35;4.97;;;32.80;1.00;;;;;;4979152;28;20258;-66
2022/10/11 10:07:21;;;;;;;13.82;4.55;;;33.00;1.00;;;;;;5024315;28;20336;-66
2022/10/11 10:09:48;;;;;;;12.25;4.50;;;32.60;1.00;;;;;;5036945;28;20199;-66
2022/10/11 10:12:22;;;;;;;11.82;4.40;;;29.70;1.00;;;;;;5030878;28;20231;-65
2022/10/11 10:15:16;;;;;;;10.55;4.60;;;28.10;1.00;;;;;;5040910;28;20224;-67
2022/10/11 10:17:51;;;;;;;14.23;4.10;;;27.70;1.00;;;;;;5040482;28;20269;-66
2022/10/11 10:20:30;;;;;;;11.63;3.92;;;28.40;1.00;;;;;;5023036;28;20764;-65
2022/10/11 10:23:09;;;;;;;9.75;3.67;;;26.70;1.00;;;;;;5022711;28;20180;-65
2022/10/11 10:25:38;;;;;;;11.15;3.83;;;28.20;1.00;;;;;;5038621;28;20260;-65
2022/10/11 10:28:24;;;;;;;10.60;3.75;;;29.10;1.00;;;;;;5037154;28;20293;-64
2022/10/11 10:30:58;;;;;;;13.30;3.72;;;29.10;1.00;;;;;;5037543;28;20587;-64
2022/10/11 10:33:31;;;;;;;10.15;3.03;;;27.40;1.00;;;;;;5015615;28;20210;-65
2022/10/11 10:36:14;;;;;;;8.52;3.63;;;26.60;1.00;;;;;;5042471;28;20216;-65
2022/10/11 10:38:57;;;;;;;8.95;2.97;;;28.30;1.00;;;;;;5041644;28;20213;-66
2022/10/11 10:41:25;;;;;;;12.35;3.17;;;29.30;1.00;;;;;;5018094;28;20778;-65
2022/10/11 10:43:57;;;;;;;8.13;3.13;;;29.00;1.00;;;;;;5042056;28;20206;-65
2022/10/11 10:46:50;;;;;;;7.85;2.90;;;30.30;1.00;;;;;;5026207;28;20192;-63
2022/10/11 10:49:43;;;;;;;7.65;2.60;;;31.60;1.00;;;;;;5025086;28;20223;-65
2022/10/11 10:52:52;;;;;;;13.32;2.60;;;32.00;1.00;;;;;;5045917;28;20187;-67
2022/10/11 10:55:31;;;;;;;9.20;2.83;;;31.90;1.00;;;;;;5021676;28;20195;-65
2022/10/11 10:58:04;;;;;;;7.10;2.63;;;32.30;1.00;;;;;;5028440;28;20271;-66
2022/10/11 11:00:51;;;;;;;9.98;2.90;;;31.70;1.00;;;;;;5040434;28;20200;-65
2022/10/11 11:03:46;;;;;;;8.30;2.90;;;30.20;1.00;;;;;;5055578;28;20227;-66
2022/10/11 11:06:33;;;;;;;9.30;2.72;;;29.10;1.00;;;;;;5039741;28;20206;-65
2022/10/11 11:09:20;;;;;;;10.30;3.10;;;28.80;1.00;;;;;;5039764;28;20192;-66
2022/10/11 11:11:47;;;;;;;7.15;3.13;;;29.10;1.00;;;;;;5037415;28;20302;-66
2022/10/11 11:14:38;;;;;;;6.00;2.60;;;29.70;1.00;;;;;;5020164;28;20253;-67
2022/10/11 11:17:36;;;;;;;12.80;2.92;;;29.20;1.00;;;;;;5030100;28;20259;-66
2022/10/11 11:20:31;;;;;;;9.20;3.00;;;29.50;1.00;;;;;;5021716;28;20204;-66
2022/10/11 11:23:26;;;;;;;9.60;2.80;;;29.70;1.00;;;;;;5024298;28;20288;-66
2022/10/11 11:26:13;;;;;;;7.05;2.65;;;27.70;1.00;;;;;;5038198;28;20242;-67
2022/10/11 11:28:59;;;;;;;8.15;2.83;;;27.60;1.00;;;;;;5039188;28;20232;-65
2022/10/11 11:31:56;;;;;;;8.55;3.63;;;28.90;1.00;;;;;;5022602;28;20550;-66
2022/10/11 11:34:42;;;;;;;9.73;4.25;;;29.80;1.00;;;;;;5038281;28;20194;-66
2022/10/11 11:37:40;;;;;;;7.10;2.85;;;29.00;1.00;;;;;;5035805;28;20283;-67
2022/10/11 11:40:22;;;;;;;6.45;2.22;;;27.10;1.00;;;;;;5021988;28;20239;-67
2022/10/11 11:42:52;;;;;;;10.88;2.85;;;26.10;1.00;;;;;;5045963;28;20723;-67
2022/10/11 11:45:24;;;;;;;6.25;2.10;;;24.80;1.00;;;;;;5030254;28;20295;-67
2022/10/11 11:48:07;;;;;;;8.20;2.63;;;23.90;1.00;;;;;;5052368;28;20193;-65
2022/10/11 11:50:39;;;;;;;8.15;2.83;;;24.10;1.00;;;;;;5039615;28;20295;-67
2022/10/11 11:53:17;;;;;;;9.48;2.67;;;25.20;1.00;;;;;;5043183;28;20188;-66
2022/10/11 11:55:55;;;;;;;7.82;2.70;;;25.10;1.00;;;;;;5044776;28;20200;-66
2022/10/11 11:59:03;;;;;;;6.68;2.58;;;24.90;1.00;;;;;;5044403;28;20537;-66
2022/10/11 12:01:45;;;;;;;5.95;2.15;;;23.50;1.00;;;;;;4928640;29;20342;-66
2022/10/11 12:04:28;;;;;;;8.70;2.60;;;24.00;1.00;;;;;;5032717;28;20200;-65
2022/10/11 12:07:05;;;;;;;8.13;2.78;;;23.60;1.00;;;;;;5041011;28;20257;-66
2022/10/11 12:09:51;;;;;;;10.45;2.50;;;23.60;1.00;;;;;;5023332;28;20227;-66
2022/10/11 12:12:35;;;;;;;15.40;3.28;;;24.40;1.00;;;;;;5021810;28;20220;-65
2022/10/11 12:15:25;;;;;;;5.80;2.30;;;24.40;1.00;;;;;;5039528;28;20203;-65
2022/10/11 12:17:56;;;;;;;8.10;2.17;;;25.20;1.00;;;;;;5029043;28;20233;-67
2022/10/11 12:20:30;;;;;;;8.88;2.90;;;25.60;1.00;;;;;;5021967;28;20220;-67
2022/10/11 12:23:04;;;;;;;8.23;2.47;;;26.10;1.00;;;;;;5022011;28;20215;-66
2022/10/11 12:25:35;;;;;;;6.60;2.25;;;26.00;1.00;;;;;;5023786;28;20231;-65
2022/10/11 12:28:41;;;;;;;4.75;2.25;;;25.80;1.00;;;;;;5027811;28;21118;-66
2022/10/11 12:31:19;;;;;;;10.02;2.95;;;26.20;1.00;;;;;;4991823;28;20214;-69
2022/10/11 12:33:46;;;;;;;8.48;2.50;;;24.60;1.00;;;;;;5006960;28;20210;-67
2022/10/11 12:36:31;;;;;;;6.85;2.40;;;24.40;1.00;;;;;;5041125;28;20608;-65
2022/10/11 12:39:18;;;;;;;8.90;2.30;;;23.90;1.00;;;;;;5034055;28;20191;-66
2022/10/11 12:41:48;;;;;;;9.77;2.95;;;21.70;1.00;;;;;;5027024;28;20203;-66
2022/10/11 12:44:21;;;;;;;11.00;2.53;;;20.90;1.00;;;;;;5041149;28;20275;-67
2022/10/11 12:46:53;;;;;;;8.35;2.60;;;20.20;1.00;;;;;;5040857;28;20234;-67
2022/10/11 12:49:20;;;;;;;6.70;2.58;;;19.40;1.00;;;;;;5031525;28;20192;-66
2022/10/11 12:52:17;;;;;;;7.07;2.38;;;19.30;1.00;;;;;;5024943;28;20210;-66
2022/10/11 12:54:57;;;;;;;6.25;2.50;;;19.20;1.00;;;;;;5030474;28;20238;-65
2022/10/11 12:58:04;;;;;;;11.57;2.42;;;19.40;1.00;;;;;;5031183;28;20203;-67
2022/10/11 13:00:50;;;;;;;11.57;2.60;;;19.10;1.00;;;;;;5031511;28;20223;-67
2022/10/11 13:03:41;;;;;;;8.07;2.60;;;18.80;1.00;;;;;;5038731;28;20191;-67
2022/10/11 13:06:14;;;;;;;8.90;2.15;;;18.70;1.00;;;;;;5023736;28;20742;-67
2022/10/11 13:08:46;;;;;;;12.25;3.28;;;18.60;1.00;;;;;;5040575;28;20194;-66
2022/10/11 13:11:19;;;;;;;7.75;2.30;;;17.90;1.00;;;;;;5029088;28;20222;-67
2022/10/11 13:13:55;;;;;;;7.35;2.28;;;17.70;1.00;;;;;;5038861;28;20220;-67
2022/10/11 13:16:26;;;;;;;10.35;2.08;;;18.20;1.00;;;;;;5039179;28;20195;-66
2022/10/11 13:18:58;;;;;;;7.30;2.58;;;18.10;1.00;;;;;;5042656;28;20220;-67
2022/10/11 13:21:35;;;;;;;8.20;2.50;;;17.70;1.00;;;;;;5044276;28;20229;-66